SBGRSBJP

Guest
Details From SBGR - Sao Paulo - Guarulhos
To SBJP - Presidente Castro Pinto
Flight Number -
Tags decoded
Created
Modified
Stats Distance 1,182 nm / 2,190 km
Max Altitude 0 ft / 0 m
Waypoints 2
Social Downloads 0
Likes 0
Share VATSIM

Download

Looking for another format? Having issues loading an existing format? Contact us
Advertisement - Login to hide

Notes

Requested: SBGR SBJP

Route

SBGR SBJP

ID Type Via Altitude Latitude Longitude Leg Dist Tot Dist Heading (true) Name
O SBGR APT - 0 ft / 0 m -23.43233˚ -46.46968˚ - 0 nm - Sao Paulo - Guarulhos
O SBJP APT - 0 ft / 0 m -7.14838˚ -34.95068˚ 1182 nm 1182 nm 36° / 33° Presidente Castro Pinto

Altitude Profile

Advertisement - Login to hide

Weather


0- 5 10 15 20 25 30 35+ Temperature / ° C

Clouds and Precipitation
Forecast for 2018-05-27 00:00 UTC. Updated 43 minutes ago

Ground ~20,000 ft ~40,000 ft Winds

SBGR

Details ICAO SBGR (GRU)
Name Sao Paulo - Guarulhos
Region Brazil
Timezone America/Sao_Paulo (UTC-3.0)
Stats Elevation 2,459 ft / 750 m (AMSL)
Location -23.432333° -46.469675°
Runways 2
Magnetic Variation 21.467° W

METAR

SBGR 270000Z 12003KT 9999 BKN013 17/15 Q1025

Decode

TAF

TAF SBGR 261610Z 2618/2724 15005KT 8000 SCT030TN13/2707Z TX22/2717Z BECMG 2621/2623 BKN013 BECMG 2700/2702 08002KT 8000 SCT015 PROB30 2707/2711 4000 BR BKN008 BECMG 2712/2714 12005KT 9999 BKN030 BECMG 2720/2722 15006KT 8000 BKN013 RMK PHM

Decode

Departure Runways

ID Width Length Bearing (true) Bearing (mag) Surface Threshold Offset Overrun Length
09L 148 ft / 45 m 12,676 ft / 3,864 m 73.61° 95.08° Asphalt 495 ft / 151 m 0 ft / 0 m
09R 148 ft / 45 m 9,950 ft / 3,033 m 73.60° 95.07° Asphalt 0 ft / 0 m 197 ft / 60 m
27L 148 ft / 45 m 9,950 ft / 3,033 m 253.59° 275.06° Asphalt 0 ft / 0 m 197 ft / 60 m
27R 148 ft / 45 m 12,676 ft / 3,864 m 253.60° 275.07° Asphalt 197 ft / 60 m 0 ft / 0 m

SBJP

Details ICAO SBJP (JPA)
Name Presidente Castro Pinto
Region Brazil
Timezone America/Fortaleza (UTC-3.0)
Stats Elevation 215 ft / 66 m (AMSL)
Location -7.148382° -34.950680°
Runways 1
Magnetic Variation 21.751° W

METAR

SBJP 270000Z 15006KT CAVOK 25/21 Q1015

Decode

TAF

TAF SBJP 261600Z 2618/2718 13010KT 8000 SCT020 TN22/2708Z TX29/2715Z BECMG 2700/2701 19005KT PROB40 TEMPO 2709/2710 5000 RASCT012 BKN017 BECMG 2711/2712 13012KT BKN017 BECMG 2714/2716 SCT025 RMK PEI

Decode

Destination Runways

ID Width Length Bearing (true) Bearing (mag) Surface Threshold Offset Overrun Length
16 148 ft / 45 m 8,282 ft / 2,524 m 135.67° 157.42° Asphalt 0 ft / 0 m 0 ft / 0 m
34 148 ft / 45 m 8,282 ft / 2,524 m 315.67° 337.42° Asphalt 0 ft / 0 m 200 ft / 61 m

Popular Alternatives